createdAt,value
2022-08-22T00:00:45.819Z,23.25
2022-08-22T00:01:45.829Z,23.25
2022-08-22T00:02:43.110Z,24.27
2022-08-22T00:02:43.755Z,24.08
2022-08-22T00:02:44.018Z,24.05
2022-08-22T00:02:55.264Z,23.68
2022-08-22T00:02:55.560Z,23.50
2022-08-22T00:02:56.787Z,24.28
2022-08-22T00:03:07.177Z,24.10
2022-08-22T00:03:08.440Z,23.79
2022-08-22T00:03:16.195Z,23.40
2022-08-22T00:03:45.833Z,23.25
2022-08-22T00:04:45.828Z,23.27
2022-08-22T00:05:45.829Z,23.31
2022-08-22T00:06:45.826Z,23.22
2022-08-22T00:07:45.826Z,23.27
2022-08-22T00:08:45.832Z,23.23
2022-08-22T00:09:45.823Z,23.20
2022-08-22T00:10:45.821Z,23.16
2022-08-22T00:11:45.838Z,23.23
2022-08-22T00:13:28.352Z,23.22
2022-08-22T00:14:28.354Z,23.22
2022-08-22T00:15:42.664Z,23.20
2022-08-22T00:16:28.359Z,23.15
2022-08-22T00:17:28.338Z,23.22
2022-08-22T00:18:28.337Z,23.20
2022-08-22T00:19:28.345Z,23.19
2022-08-22T00:20:28.547Z,23.20
2022-08-22T00:21:31.175Z,23.25
2022-08-22T00:22:28.345Z,23.19
2022-08-22T00:23:28.348Z,23.25
2022-08-22T00:24:28.344Z,23.25
2022-08-22T00:25:28.336Z,23.22
2022-08-22T00:26:28.343Z,23.19
2022-08-22T00:27:28.344Z,23.19
2022-08-22T00:28:28.344Z,23.19
2022-08-22T00:29:28.333Z,23.17
2022-08-22T00:30:28.350Z,23.16
2022-08-22T00:31:28.353Z,23.16
2022-08-22T00:32:28.344Z,23.16
2022-08-22T00:33:28.342Z,23.15
2022-08-22T00:34:28.347Z,23.17
2022-08-22T00:35:28.344Z,23.13
2022-08-22T00:36:28.346Z,23.20
2022-08-22T00:37:28.345Z,23.22
2022-08-22T00:38:28.334Z,23.16
2022-08-22T00:39:28.339Z,23.17
2022-08-22T00:40:28.335Z,23.10
2022-08-22T00:41:28.339Z,23.07
2022-08-22T00:42:29.544Z,23.15
2022-08-22T00:43:28.335Z,23.16
2022-08-22T00:44:28.334Z,23.17
2022-08-22T00:45:28.332Z,23.19
2022-08-22T00:46:28.348Z,23.16
2022-08-22T00:47:28.337Z,23.07
2022-08-22T00:48:28.335Z,23.17
2022-08-22T00:49:29.729Z,23.22
2022-08-22T00:50:28.339Z,23.17
2022-08-22T00:51:28.341Z,23.09
2022-08-22T00:52:28.327Z,23.10
2022-08-22T00:53:28.333Z,23.15
2022-08-22T00:54:28.331Z,23.04
2022-08-22T00:55:28.330Z,23.15
2022-08-22T00:56:28.335Z,23.15
2022-08-22T00:57:28.332Z,23.19
2022-08-22T00:58:28.325Z,23.05
2022-08-22T00:59:28.337Z,23.10
2022-08-22T01:00:28.332Z,23.09
2022-08-22T01:01:28.363Z,23.15
2022-08-22T01:02:28.323Z,23.09
2022-08-22T01:03:28.330Z,23.12
2022-08-22T01:04:28.332Z,23.04
2022-08-22T01:05:28.329Z,23.12
2022-08-22T01:06:28.326Z,23.12
2022-08-22T01:07:30.604Z,23.10
2022-08-22T01:08:28.336Z,23.07
2022-08-22T01:09:28.329Z,23.07
2022-08-22T01:10:28.331Z,23.07
2022-08-22T01:11:28.321Z,23.05
2022-08-22T01:12:28.328Z,23.13
2022-08-22T01:13:28.325Z,23.12
2022-08-22T01:14:34.171Z,23.05
2022-08-22T01:15:28.318Z,23.12
2022-08-22T01:16:28.327Z,23.04
2022-08-22T01:17:28.318Z,23.13
2022-08-22T01:18:28.328Z,23.05
2022-08-22T01:19:28.320Z,23.15
2022-08-22T01:20:28.322Z,23.12
2022-08-22T01:21:28.322Z,23.12
2022-08-22T01:22:28.324Z,23.13
2022-08-22T01:23:28.322Z,23.13
2022-08-22T01:24:28.325Z,23.07
2022-08-22T01:25:28.322Z,23.05
2022-08-22T01:26:28.536Z,23.07
2022-08-22T01:27:28.316Z,23.01
2022-08-22T01:28:28.312Z,23.12
2022-08-22T01:29:28.797Z,23.10
2022-08-22T01:30:28.319Z,23.10
2022-08-22T01:31:28.320Z,23.07
2022-08-22T01:32:28.318Z,23.07
2022-08-22T01:33:28.313Z,23.07
2022-08-22T01:34:28.320Z,23.02
2022-08-22T01:35:28.308Z,23.10
2022-08-22T01:36:28.311Z,23.09
2022-08-22T01:37:28.317Z,23.05
2022-08-22T01:38:28.318Z,23.05
2022-08-22T01:39:28.322Z,23.05
2022-08-22T01:40:28.311Z,23.04
2022-08-22T01:41:28.317Z,23.05
2022-08-22T01:42:28.307Z,23.01
2022-08-22T01:44:00.038Z,23.04
2022-08-22T01:44:28.306Z,23.01
2022-08-22T01:45:28.315Z,23.09
2022-08-22T01:46:28.317Z,23.05
2022-08-22T01:47:28.312Z,23.07
2022-08-22T01:48:28.313Z,23.01
2022-08-22T01:49:28.336Z,23.07
2022-08-22T01:50:28.312Z,23.05
2022-08-22T01:51:28.309Z,23.07
2022-08-22T01:52:28.306Z,23.05
2022-08-22T01:53:28.314Z,23.05
2022-08-22T01:54:28.321Z,23.07
2022-08-22T01:55:28.314Z,23.07
2022-08-22T01:56:28.303Z,23.13
2022-08-22T01:57:28.303Z,23.12
2022-08-22T01:58:28.315Z,23.02
2022-08-22T01:59:33.805Z,23.09
2022-08-22T02:00:34.743Z,23.10
2022-08-22T02:01:28.368Z,23.02
2022-08-22T02:02:28.309Z,23.10
2022-08-22T02:03:28.300Z,23.02
2022-08-22T02:04:28.317Z,23.09
2022-08-22T02:05:28.299Z,23.10
2022-08-22T02:06:28.307Z,23.01
2022-08-22T02:07:31.634Z,23.01
2022-08-22T02:08:28.301Z,23.01
2022-08-22T02:09:28.307Z,23.04
2022-08-22T02:10:28.312Z,23.05
2022-08-22T02:11:28.301Z,22.95
2022-08-22T02:12:28.309Z,22.97
2022-08-22T02:13:28.306Z,23.01
2022-08-22T02:14:28.310Z,23.01
2022-08-22T02:15:28.301Z,22.95
2022-08-22T02:16:28.309Z,22.94
2022-08-22T02:17:28.300Z,22.94
2022-08-22T02:18:28.299Z,22.98
2022-08-22T02:19:28.305Z,22.94
2022-08-22T02:20:28.299Z,22.95
2022-08-22T02:21:28.774Z,22.92
2022-08-22T02:22:28.295Z,22.91
2022-08-22T02:23:28.306Z,22.92
2022-08-22T02:24:28.295Z,22.92
2022-08-22T02:25:28.292Z,22.92
2022-08-22T02:26:28.295Z,22.80
2022-08-22T02:27:31.411Z,22.83
2022-08-22T02:28:28.309Z,22.80
2022-08-22T02:29:28.291Z,22.82
2022-08-22T02:30:28.308Z,22.80
2022-08-22T02:31:28.295Z,22.79
2022-08-22T02:32:28.291Z,22.79
2022-08-22T02:33:28.289Z,22.79
2022-08-22T02:34:28.292Z,22.82
2022-08-22T02:35:28.299Z,22.77
2022-08-22T02:36:28.287Z,22.80
2022-08-22T02:37:28.295Z,22.75
2022-08-22T02:38:28.287Z,22.72
2022-08-22T02:39:28.286Z,22.72
2022-08-22T02:40:28.292Z,22.73
2022-08-22T02:41:28.291Z,22.77
2022-08-22T02:42:28.293Z,22.68
2022-08-22T02:43:28.293Z,22.79
2022-08-22T02:44:28.293Z,22.75
2022-08-22T02:45:28.282Z,22.76
2022-08-22T02:46:28.284Z,22.75
2022-08-22T02:47:28.290Z,22.64
2022-08-22T02:48:28.280Z,22.70
2022-08-22T02:49:28.277Z,22.73
2022-08-22T02:50:28.281Z,22.68
2022-08-22T02:51:28.287Z,22.67
2022-08-22T02:52:28.284Z,22.58
2022-08-22T02:53:28.283Z,22.65
2022-08-22T02:54:28.275Z,22.60
2022-08-22T02:55:28.281Z,22.57
2022-08-22T02:56:28.283Z,22.60
2022-08-22T02:57:28.273Z,22.67
2022-08-22T02:58:28.360Z,22.65
2022-08-22T02:59:28.273Z,22.62
2022-08-22T03:00:32.344Z,22.65
2022-08-22T03:01:28.284Z,22.62
2022-08-22T03:02:28.298Z,22.57
2022-08-22T03:03:28.296Z,22.60
2022-08-22T03:04:28.271Z,22.60
2022-08-22T03:05:28.267Z,22.60
2022-08-22T03:06:28.265Z,22.58
2022-08-22T03:07:28.264Z,22.67
2022-08-22T03:08:29.207Z,22.55
2022-08-22T03:09:28.261Z,22.60
2022-08-22T03:10:28.270Z,22.58
2022-08-22T03:11:28.310Z,22.57
2022-08-22T03:12:28.267Z,22.57
2022-08-22T03:13:28.264Z,22.55
2022-08-22T03:14:28.260Z,22.55
2022-08-22T03:15:28.266Z,22.52
2022-08-22T03:16:28.274Z,22.57
2022-08-22T03:17:28.266Z,22.51
2022-08-22T03:18:28.255Z,22.58
2022-08-22T03:19:28.261Z,22.55
2022-08-22T03:20:28.264Z,22.57
2022-08-22T03:21:28.260Z,22.60
2022-08-22T03:22:28.254Z,22.61
2022-08-22T03:23:28.256Z,22.58
2022-08-22T03:24:28.266Z,22.49
2022-08-22T03:25:28.257Z,22.55
2022-08-22T03:26:28.257Z,22.61
2022-08-22T03:27:33.053Z,22.60
2022-08-22T03:28:28.260Z,22.54
2022-08-22T03:29:28.255Z,22.62
2022-08-22T03:30:28.255Z,22.51
2022-08-22T03:31:28.257Z,22.49
2022-08-22T03:32:28.390Z,22.49
2022-08-22T03:33:28.263Z,22.39
2022-08-22T03:34:28.246Z,22.49
2022-08-22T03:35:28.250Z,22.43
2022-08-22T03:36:28.238Z,22.39
2022-08-22T03:37:28.247Z,22.43
2022-08-22T03:38:28.241Z,22.46
2022-08-22T03:39:28.235Z,22.39
2022-08-22T03:40:29.719Z,22.40
2022-08-22T03:41:28.239Z,22.47
2022-08-22T03:42:28.232Z,22.39
2022-08-22T03:43:28.237Z,22.40
2022-08-22T03:44:28.229Z,22.37
2022-08-22T03:45:28.233Z,22.35
2022-08-22T03:46:28.238Z,22.33
2022-08-22T03:47:28.228Z,22.33
2022-08-22T03:48:28.237Z,22.33
2022-08-22T03:49:28.231Z,22.31
2022-08-22T03:50:28.238Z,22.27
2022-08-22T03:51:28.233Z,22.28
2022-08-22T03:52:28.223Z,22.25
2022-08-22T03:53:28.221Z,22.27
2022-08-22T03:54:30.380Z,22.28
2022-08-22T03:55:28.220Z,22.30
2022-08-22T03:56:28.228Z,22.28
2022-08-22T03:57:28.222Z,22.25
2022-08-22T03:58:28.530Z,22.31
2022-08-22T03:59:28.220Z,22.28
2022-08-22T04:00:28.235Z,22.28
2022-08-22T04:01:28.219Z,22.25
2022-08-22T04:02:43.438Z,22.21
2022-08-22T04:03:28.218Z,22.25
2022-08-22T04:04:28.249Z,22.20
2022-08-22T04:05:28.209Z,22.22
2022-08-22T04:06:28.217Z,22.18
2022-08-22T04:07:31.731Z,22.20
2022-08-22T04:08:28.213Z,22.24
2022-08-22T04:09:29.090Z,22.20
2022-08-22T04:10:28.210Z,22.21
2022-08-22T04:11:28.205Z,22.17
2022-08-22T04:12:28.212Z,22.21
2022-08-22T04:13:28.209Z,22.17
2022-08-22T04:14:28.212Z,22.25
2022-08-22T04:15:28.213Z,22.21
2022-08-22T04:16:28.203Z,22.17
2022-08-22T04:17:28.202Z,22.15
2022-08-22T04:18:28.198Z,22.21
2022-08-22T04:19:28.204Z,22.18
2022-08-22T04:20:28.201Z,22.20
2022-08-22T04:21:28.197Z,22.15
2022-08-22T04:22:28.218Z,22.24
2022-08-22T04:23:28.191Z,22.21
2022-08-22T04:24:28.206Z,22.18
2022-08-22T04:25:28.192Z,22.21
2022-08-22T04:26:28.193Z,22.22
2022-08-22T04:27:28.191Z,22.14
2022-08-22T04:28:28.187Z,22.20
2022-08-22T04:29:28.183Z,22.20
2022-08-22T04:30:28.194Z,22.17
2022-08-22T04:31:28.183Z,22.22
2022-08-22T04:32:28.181Z,22.22
2022-08-22T04:33:28.189Z,22.25
2022-08-22T04:34:28.180Z,22.25
2022-08-22T04:35:28.188Z,22.27
2022-08-22T04:36:28.186Z,22.27
2022-08-22T04:37:28.176Z,22.25
2022-08-22T04:38:28.177Z,22.28
2022-08-22T04:39:28.188Z,22.25
2022-08-22T04:40:28.176Z,22.30
2022-08-22T04:41:28.177Z,22.33
2022-08-22T04:42:32.544Z,22.27
2022-08-22T04:43:28.179Z,22.24
2022-08-22T04:44:28.175Z,22.24
2022-08-22T04:45:28.181Z,22.33
2022-08-22T04:46:33.598Z,22.27
2022-08-22T04:47:28.176Z,22.28
2022-08-22T04:48:28.191Z,22.25
2022-08-22T04:49:28.174Z,22.27
2022-08-22T04:50:28.162Z,22.25
2022-08-22T04:51:28.173Z,22.37
2022-08-22T04:52:29.624Z,22.27
2022-08-22T04:53:28.175Z,22.36
2022-08-22T04:54:28.170Z,22.31
2022-08-22T04:55:28.171Z,22.30
2022-08-22T04:56:28.159Z,22.31
2022-08-22T04:57:28.160Z,22.30
2022-08-22T04:58:28.162Z,22.28
2022-08-22T04:59:28.168Z,22.36
2022-08-22T05:00:28.167Z,22.33
2022-08-22T05:01:28.194Z,22.27
2022-08-22T05:02:28.172Z,22.31
2022-08-22T05:03:28.175Z,22.31
2022-08-22T05:04:28.161Z,22.35
2022-08-22T05:05:28.220Z,22.35
2022-08-22T05:06:28.159Z,22.35
2022-08-22T05:07:28.161Z,22.31
2022-08-22T05:08:28.154Z,22.37
2022-08-22T05:09:28.168Z,22.39
2022-08-22T05:10:28.148Z,22.35
2022-08-22T05:11:28.148Z,22.37
2022-08-22T05:12:29.224Z,22.37
2022-08-22T05:13:28.154Z,22.37
2022-08-22T05:14:28.147Z,22.42
2022-08-22T05:15:28.151Z,22.37
2022-08-22T05:16:28.162Z,22.47
2022-08-22T05:17:28.144Z,22.45
2022-08-22T05:18:29.936Z,22.49
2022-08-22T05:19:31.878Z,22.39
2022-08-22T05:20:28.144Z,22.49
2022-08-22T05:21:28.141Z,22.57
2022-08-22T05:22:28.152Z,22.60
2022-08-22T05:23:28.140Z,22.57
2022-08-22T05:24:28.303Z,22.61
2022-08-22T05:25:28.149Z,22.58
2022-08-22T05:26:28.139Z,22.57
2022-08-22T05:27:28.148Z,22.67
2022-08-22T05:28:28.155Z,22.62
2022-08-22T05:29:28.142Z,22.55
2022-08-22T05:30:28.144Z,22.67
2022-08-22T05:31:28.137Z,22.67
2022-08-22T05:32:28.136Z,22.64
2022-08-22T05:33:28.143Z,22.70
2022-08-22T05:34:28.144Z,22.72
2022-08-22T05:35:28.137Z,22.75
2022-08-22T05:36:28.148Z,22.73
2022-08-22T05:37:28.139Z,22.79
2022-08-22T05:38:28.134Z,22.76
2022-08-22T05:39:28.297Z,22.73
2022-08-22T05:40:28.136Z,22.83
2022-08-22T05:41:28.154Z,22.86
2022-08-22T05:42:28.134Z,22.88
2022-08-22T05:43:28.138Z,22.83
2022-08-22T05:44:28.134Z,22.88
2022-08-22T05:45:28.130Z,22.95
2022-08-22T05:46:28.137Z,22.92
2022-08-22T05:47:28.136Z,22.97
2022-08-22T05:48:28.133Z,22.97
2022-08-22T05:49:28.161Z,23.01
2022-08-22T05:50:28.134Z,23.04
2022-08-22T05:51:28.131Z,23.07
2022-08-22T05:52:28.174Z,23.13
2022-08-22T05:53:28.140Z,23.12
2022-08-22T05:54:34.286Z,23.10
2022-08-22T05:55:28.134Z,23.17
2022-08-22T05:56:28.143Z,23.10
2022-08-22T05:57:28.151Z,23.23
2022-08-22T05:58:28.138Z,23.25
2022-08-22T05:59:28.142Z,23.27
2022-08-22T06:00:28.146Z,23.23
2022-08-22T06:01:28.177Z,23.17
2022-08-22T06:02:28.133Z,23.27
2022-08-22T06:03:28.165Z,23.27
2022-08-22T06:04:28.142Z,23.27
2022-08-22T06:05:28.134Z,23.38
2022-08-22T06:06:28.142Z,23.39
2022-08-22T06:07:28.135Z,23.39
2022-08-22T06:08:28.134Z,23.35
2022-08-22T06:09:35.758Z,23.35
2022-08-22T06:10:28.142Z,23.35
2022-08-22T06:11:33.695Z,23.40
2022-08-22T06:12:28.154Z,23.42
2022-08-22T06:13:28.159Z,23.36
2022-08-22T06:14:28.143Z,23.46
2022-08-22T06:15:28.993Z,23.39
2022-08-22T06:16:28.145Z,23.40
2022-08-22T06:17:28.138Z,23.47
2022-08-22T06:18:28.150Z,23.40
2022-08-22T06:19:28.137Z,23.46
2022-08-22T06:20:28.721Z,23.51
2022-08-22T06:21:30.593Z,23.40
2022-08-22T06:22:28.144Z,23.55
2022-08-22T06:23:28.140Z,23.53
2022-08-22T06:24:28.141Z,23.57
2022-08-22T06:25:28.150Z,23.50
2022-08-22T06:26:28.152Z,23.48
2022-08-22T06:27:31.409Z,23.48
2022-08-22T06:28:28.154Z,23.51
2022-08-22T06:29:28.141Z,23.50
2022-08-22T06:30:28.173Z,23.54
2022-08-22T06:31:28.143Z,23.58
2022-08-22T06:32:58.321Z,23.55
2022-08-22T06:33:28.152Z,23.55
2022-08-22T06:34:28.156Z,23.57
2022-08-22T06:35:28.156Z,23.54
2022-08-22T06:36:28.144Z,23.63
2022-08-22T06:37:28.145Z,23.54
2022-08-22T06:38:28.146Z,23.53
2022-08-22T06:39:28.148Z,23.66
2022-08-22T06:40:28.154Z,23.66
2022-08-22T06:41:28.150Z,23.60
2022-08-22T06:42:28.152Z,23.61
2022-08-22T06:43:28.154Z,23.69
2022-08-22T06:44:28.158Z,23.61
2022-08-22T06:45:28.157Z,23.61
2022-08-22T06:46:28.156Z,23.63
2022-08-22T06:47:28.158Z,23.58
2022-08-22T06:48:28.176Z,23.51
2022-08-22T06:49:28.160Z,23.51
2022-08-22T06:50:28.152Z,23.47
2022-08-22T06:51:28.166Z,23.35
2022-08-22T06:52:28.161Z,23.31
2022-08-22T06:53:28.153Z,23.25
2022-08-22T06:54:32.526Z,23.23
2022-08-22T06:55:28.155Z,23.16
2022-08-22T06:56:28.161Z,23.07
2022-08-22T06:57:28.154Z,22.97
2022-08-22T06:58:30.948Z,22.98
2022-08-22T06:59:28.167Z,22.91
2022-08-22T07:00:28.164Z,22.92
2022-08-22T07:01:28.190Z,22.86
2022-08-22T07:02:28.163Z,22.79
2022-08-22T07:03:28.154Z,22.79
2022-08-22T07:04:28.162Z,22.76
2022-08-22T07:05:28.161Z,22.76
2022-08-22T07:06:28.158Z,22.65
2022-08-22T07:07:28.154Z,22.70
2022-08-22T07:08:28.156Z,22.60
2022-08-22T07:09:28.154Z,22.67
2022-08-22T07:10:28.153Z,22.52
2022-08-22T07:11:28.169Z,22.52
2022-08-22T07:12:28.153Z,22.49
2022-08-22T07:13:28.156Z,22.61
2022-08-22T07:14:28.156Z,22.61
2022-08-22T07:15:28.146Z,22.57
2022-08-22T07:16:28.152Z,22.52
2022-08-22T07:17:28.156Z,22.43
2022-08-22T07:18:28.160Z,22.40
2022-08-22T07:19:28.147Z,22.39
2022-08-22T07:20:28.171Z,22.46
2022-08-22T07:21:28.145Z,22.46
2022-08-22T07:22:28.145Z,22.46
2022-08-22T07:23:28.149Z,22.45
2022-08-22T07:24:28.149Z,22.42
2022-08-22T07:25:28.146Z,22.47
2022-08-22T07:26:28.142Z,22.43
2022-08-22T07:27:28.166Z,22.46
2022-08-22T07:28:36.739Z,22.45
2022-08-22T07:29:28.139Z,22.36
2022-08-22T07:30:28.579Z,22.46
2022-08-22T07:31:28.143Z,22.57
2022-08-22T07:32:28.137Z,22.51
2022-08-22T07:33:28.134Z,22.43
2022-08-22T07:34:28.143Z,22.51
2022-08-22T07:35:28.129Z,22.57
2022-08-22T07:36:31.584Z,22.60
2022-08-22T07:37:28.135Z,22.51
2022-08-22T07:38:28.130Z,22.57
2022-08-22T07:39:28.136Z,22.58
2022-08-22T07:40:28.147Z,22.58
2022-08-22T07:41:28.123Z,22.62
2022-08-22T07:42:30.255Z,22.68
2022-08-22T07:43:28.121Z,22.57
2022-08-22T07:44:28.123Z,22.70
2022-08-22T07:45:28.135Z,22.76
2022-08-22T07:46:28.123Z,22.62
2022-08-22T07:47:28.121Z,22.79
2022-08-22T07:48:28.122Z,22.79
2022-08-22T07:49:28.116Z,22.82
2022-08-22T07:50:28.154Z,22.86
2022-08-22T07:51:28.126Z,22.90
2022-08-22T07:52:28.117Z,22.92
2022-08-22T07:53:28.119Z,22.92
2022-08-22T07:54:28.119Z,23.07
2022-08-22T07:55:28.167Z,23.05
2022-08-22T07:56:28.118Z,23.04
2022-08-22T07:57:28.113Z,23.10
2022-08-22T07:58:28.118Z,23.05
2022-08-22T07:59:28.114Z,23.12
2022-08-22T08:00:28.119Z,23.15
2022-08-22T08:01:28.137Z,23.23
2022-08-22T08:02:28.115Z,23.17
2022-08-22T08:03:28.119Z,23.16
2022-08-22T08:04:28.114Z,23.15
2022-08-22T08:05:28.117Z,23.25
2022-08-22T08:06:28.116Z,23.27
2022-08-22T08:07:28.115Z,23.27
2022-08-22T08:08:28.112Z,23.27
2022-08-22T08:09:28.110Z,23.38
2022-08-22T08:10:28.115Z,23.38
2022-08-22T08:11:28.112Z,23.38
2022-08-22T08:12:28.113Z,23.35
2022-08-22T08:13:28.112Z,23.38
2022-08-22T08:14:28.106Z,23.38
2022-08-22T08:15:28.119Z,23.39
2022-08-22T08:16:28.121Z,23.39
2022-08-22T08:17:31.988Z,23.32
2022-08-22T08:18:28.112Z,23.35
2022-08-22T08:19:28.108Z,23.42
2022-08-22T08:20:28.107Z,23.40
2022-08-22T08:21:28.108Z,23.48
2022-08-22T08:22:28.112Z,23.46
2022-08-22T08:23:28.101Z,23.43
2022-08-22T08:24:28.111Z,23.39
2022-08-22T08:25:28.107Z,23.40
2022-08-22T08:26:28.105Z,23.42
2022-08-22T08:27:28.099Z,23.31
2022-08-22T08:28:28.107Z,23.40
2022-08-22T08:29:28.102Z,23.48
2022-08-22T08:30:28.108Z,23.43
2022-08-22T08:31:28.113Z,23.47
2022-08-22T08:32:28.110Z,23.43
2022-08-22T08:33:28.119Z,23.43
2022-08-22T08:34:28.112Z,23.43
2022-08-22T08:35:28.102Z,23.42
2022-08-22T08:36:28.121Z,23.46
2022-08-22T08:37:28.098Z,23.40
2022-08-22T08:38:28.104Z,23.46
2022-08-22T08:39:28.601Z,23.46
2022-08-22T08:40:28.104Z,23.39
2022-08-22T08:41:28.107Z,23.43
2022-08-22T08:42:28.098Z,23.47
2022-08-22T08:43:28.111Z,23.47
2022-08-22T08:44:28.101Z,23.51
2022-08-22T08:45:28.958Z,23.51
2022-08-22T08:46:28.101Z,23.48
2022-08-22T08:47:28.104Z,23.54
2022-08-22T08:48:28.101Z,23.55
2022-08-22T08:49:28.094Z,23.47
2022-08-22T08:50:28.103Z,23.55
2022-08-22T08:51:28.093Z,23.50
2022-08-22T08:52:28.093Z,23.48
2022-08-22T08:53:28.104Z,23.51
2022-08-22T08:54:28.103Z,23.50
2022-08-22T08:55:28.100Z,23.50
2022-08-22T08:56:28.108Z,23.54
2022-08-22T08:57:28.103Z,23.50
2022-08-22T08:58:28.103Z,23.53
2022-08-22T08:59:28.097Z,23.55
2022-08-22T09:00:29.097Z,23.60
2022-08-22T09:01:28.606Z,23.60
2022-08-22T09:02:34.805Z,23.58
2022-08-22T09:03:30.985Z,23.57
2022-08-22T09:04:28.100Z,23.63
2022-08-22T09:05:28.098Z,23.66
2022-08-22T09:06:28.099Z,23.61
2022-08-22T09:07:28.105Z,23.66
2022-08-22T09:08:28.097Z,23.57
2022-08-22T09:09:28.092Z,23.65
2022-08-22T09:10:29.395Z,23.60
2022-08-22T09:11:28.555Z,23.65
2022-08-22T09:12:28.105Z,23.63
2022-08-22T09:13:28.104Z,23.65
2022-08-22T09:14:28.089Z,23.68
2022-08-22T09:15:28.096Z,23.65
2022-08-22T09:16:28.089Z,23.76
2022-08-22T09:17:28.093Z,23.69
2022-08-22T09:18:28.096Z,23.69
2022-08-22T09:19:28.101Z,23.70
2022-08-22T09:20:28.089Z,23.68
2022-08-22T09:21:31.500Z,23.76
2022-08-22T09:22:28.099Z,23.84
2022-08-22T09:23:28.095Z,23.78
2022-08-22T09:24:28.094Z,23.72
2022-08-22T09:25:38.566Z,23.78
2022-08-22T09:26:28.099Z,23.80
2022-08-22T09:27:28.117Z,23.76
2022-08-22T09:28:28.315Z,23.80
2022-08-22T09:29:29.109Z,23.80
2022-08-22T09:30:28.859Z,23.91
2022-08-22T09:31:44.888Z,23.79
2022-08-22T09:32:28.093Z,23.87
2022-08-22T09:33:28.478Z,23.76
2022-08-22T09:34:28.093Z,23.79
2022-08-22T09:35:28.111Z,23.80
2022-08-22T09:36:28.090Z,23.88
2022-08-22T09:37:28.090Z,23.85
2022-08-22T09:38:28.101Z,23.88
2022-08-22T09:39:28.098Z,23.84
2022-08-22T09:40:28.124Z,23.88
2022-08-22T09:41:28.099Z,23.90
2022-08-22T09:42:28.113Z,23.98
2022-08-22T09:43:28.089Z,23.87
2022-08-22T09:44:28.106Z,23.88
2022-08-22T09:45:28.091Z,23.88
2022-08-22T09:46:32.182Z,23.85
2022-08-22T09:47:31.329Z,23.85
2022-08-22T09:48:28.101Z,23.85
2022-08-22T09:49:28.105Z,23.85
2022-08-22T09:50:29.471Z,23.97
2022-08-22T09:51:31.560Z,23.93
2022-08-22T09:52:33.857Z,23.93
2022-08-22T09:53:28.095Z,23.93
2022-08-22T09:54:31.118Z,23.94
2022-08-22T09:55:35.142Z,23.90
2022-08-22T09:56:29.047Z,23.91
2022-08-22T09:57:28.100Z,23.95
2022-08-22T09:58:28.099Z,23.98
2022-08-22T09:59:28.124Z,23.90
2022-08-22T10:00:28.101Z,23.95
2022-08-22T10:01:32.866Z,23.95
2022-08-22T10:02:28.096Z,23.98
2022-08-22T10:03:28.110Z,23.95
2022-08-22T10:04:28.099Z,23.95
2022-08-22T10:05:35.214Z,24.02
2022-08-22T10:06:28.095Z,23.94
2022-08-22T10:07:28.102Z,23.94
2022-08-22T10:08:28.105Z,24.00
2022-08-22T10:09:31.371Z,24.03
2022-08-22T10:10:28.109Z,24.00
2022-08-22T10:11:28.708Z,24.05
2022-08-22T10:12:30.557Z,24.08
2022-08-22T10:13:28.112Z,24.08
2022-08-22T10:14:28.111Z,24.05
2022-08-22T10:15:28.102Z,24.03
2022-08-22T10:16:28.103Z,24.06
2022-08-22T10:17:28.108Z,24.05
2022-08-22T10:18:28.121Z,24.05
2022-08-22T10:19:28.103Z,24.03
2022-08-22T10:20:28.116Z,24.05
2022-08-22T10:21:28.105Z,24.10
2022-08-22T10:22:30.165Z,24.06
2022-08-22T10:23:28.116Z,24.08
2022-08-22T10:24:28.109Z,24.15
2022-08-22T10:25:28.585Z,24.08
2022-08-22T10:26:28.116Z,24.10
2022-08-22T10:27:28.951Z,24.08
2022-08-22T10:28:28.624Z,24.10
2022-08-22T10:29:28.114Z,24.09
2022-08-22T10:30:28.109Z,24.02
2022-08-22T10:31:28.107Z,24.08
2022-08-22T10:32:28.107Z,24.09
2022-08-22T10:33:29.093Z,24.10
2022-08-22T10:34:28.116Z,24.12
2022-08-22T10:35:28.115Z,24.08
2022-08-22T10:36:28.111Z,24.06
2022-08-22T10:37:28.117Z,24.16
2022-08-22T10:38:28.114Z,24.06
2022-08-22T10:39:28.115Z,24.18
2022-08-22T10:40:28.252Z,24.08
2022-08-22T10:41:28.119Z,24.12
2022-08-22T10:42:28.433Z,24.16
2022-08-22T10:43:28.834Z,24.18
2022-08-22T10:44:28.125Z,24.18
2022-08-22T10:45:37.123Z,24.21
2022-08-22T10:46:28.117Z,24.15
2022-08-22T10:47:28.114Z,24.24
2022-08-22T10:48:28.117Z,24.13
2022-08-22T10:49:28.726Z,24.18
2022-08-22T10:50:30.964Z,24.13
2022-08-22T10:51:28.633Z,24.16
2022-08-22T10:52:28.127Z,24.22
2022-08-22T10:53:29.564Z,24.20
2022-08-22T10:54:28.121Z,24.15
2022-08-22T10:55:28.132Z,24.18
2022-08-22T10:56:28.128Z,24.20
2022-08-22T10:57:28.131Z,24.20
2022-08-22T10:58:28.123Z,24.27
2022-08-22T10:59:28.135Z,24.22
2022-08-22T11:00:28.130Z,24.28
2022-08-22T11:01:41.089Z,24.25
2022-08-22T11:02:28.124Z,24.25
2022-08-22T11:03:28.137Z,24.13
2022-08-22T11:04:28.531Z,24.32
2022-08-22T11:05:28.130Z,24.24
2022-08-22T11:06:28.145Z,24.21
2022-08-22T11:07:28.133Z,24.27
2022-08-22T11:08:28.133Z,24.27
2022-08-22T11:09:30.282Z,24.28
2022-08-22T11:10:28.159Z,24.30
2022-08-22T11:11:32.666Z,24.32
2022-08-22T11:12:35.009Z,24.30
2022-08-22T11:13:28.137Z,24.27
2022-08-22T11:14:28.134Z,24.13
2022-08-22T11:15:34.723Z,24.25
2022-08-22T11:16:28.138Z,24.24
2022-08-22T11:17:32.434Z,24.27
2022-08-22T11:18:28.151Z,24.27
2022-08-22T11:19:28.143Z,24.31
2022-08-22T11:20:28.140Z,24.35
2022-08-22T11:21:28.728Z,24.24
2022-08-22T11:22:28.142Z,24.31
2022-08-22T11:23:28.139Z,24.34
2022-08-22T11:24:35.371Z,24.31
2022-08-22T11:25:35.863Z,24.32
2022-08-22T11:26:33.817Z,24.37
2022-08-22T11:27:39.433Z,24.30
2022-08-22T11:28:28.738Z,24.32
2022-08-22T11:29:28.150Z,24.35
2022-08-22T11:30:28.161Z,24.27
2022-08-22T11:31:28.155Z,24.27
2022-08-22T11:32:28.149Z,24.37
2022-08-22T11:33:46.268Z,24.34
2022-08-22T11:34:28.156Z,24.40
2022-08-22T11:35:28.153Z,24.32
2022-08-22T11:36:30.871Z,24.34
2022-08-22T11:37:42.726Z,24.40
2022-08-22T11:38:30.643Z,24.42
2022-08-22T11:39:28.168Z,24.43
2022-08-22T11:40:28.284Z,24.39
2022-08-22T11:41:28.171Z,24.40
2022-08-22T11:42:29.488Z,24.39
2022-08-22T11:43:28.168Z,24.47
2022-08-22T11:44:28.164Z,24.42
2022-08-22T11:45:28.163Z,24.40
2022-08-22T11:46:28.162Z,24.45
2022-08-22T11:47:28.993Z,24.37
2022-08-22T11:48:28.170Z,24.22
2022-08-22T11:49:28.171Z,24.47
2022-08-22T11:50:28.176Z,24.45
2022-08-22T11:51:28.165Z,24.43
2022-08-22T11:52:28.180Z,24.37
2022-08-22T11:53:28.169Z,24.34
2022-08-22T11:54:30.978Z,24.40
2022-08-22T11:55:32.771Z,24.37
2022-08-22T11:56:28.187Z,24.45
2022-08-22T11:57:28.170Z,24.34
2022-08-22T11:58:29.361Z,24.42
2022-08-22T11:59:28.185Z,24.40
2022-08-22T12:00:28.185Z,24.37
2022-08-22T12:01:28.170Z,24.34
2022-08-22T12:02:28.236Z,24.39
2022-08-22T12:03:28.184Z,24.40
2022-08-22T12:04:28.185Z,24.47
2022-08-22T12:05:28.183Z,24.34
2022-08-22T12:06:28.194Z,24.45
2022-08-22T12:07:28.184Z,24.37
2022-08-22T12:08:28.191Z,24.46
2022-08-22T12:09:28.183Z,24.46
2022-08-22T12:10:28.189Z,24.42
2022-08-22T12:11:28.192Z,24.46
2022-08-22T12:12:28.185Z,24.43
2022-08-22T12:13:34.173Z,24.47
2022-08-22T12:14:28.199Z,24.39
2022-08-22T12:15:28.585Z,24.39
2022-08-22T12:16:28.207Z,24.49
2022-08-22T12:17:55.013Z,24.46
2022-08-22T12:18:28.202Z,24.45
2022-08-22T12:19:28.194Z,24.46
2022-08-22T12:20:28.192Z,24.46
2022-08-22T12:21:28.190Z,24.46
2022-08-22T12:22:28.838Z,24.46
2022-08-22T12:23:30.384Z,24.45
2022-08-22T12:24:28.202Z,24.42
2022-08-22T12:25:28.201Z,24.50
2022-08-22T12:26:28.207Z,24.43
2022-08-22T12:27:29.153Z,24.49
2022-08-22T12:28:28.198Z,24.43
2022-08-22T12:29:34.185Z,24.49
2022-08-22T12:30:28.211Z,24.49
2022-08-22T12:31:28.201Z,24.49
2022-08-22T12:32:28.203Z,24.47
2022-08-22T12:33:28.224Z,24.45
2022-08-22T12:34:28.209Z,24.50
2022-08-22T12:35:29.834Z,24.47
2022-08-22T12:36:28.204Z,24.46
2022-08-22T12:37:28.206Z,24.46
2022-08-22T12:38:30.681Z,24.47
2022-08-22T12:39:28.210Z,24.42
2022-08-22T12:40:28.266Z,24.49
2022-08-22T12:41:34.955Z,24.52
2022-08-22T12:42:28.213Z,24.52
2022-08-22T12:43:28.235Z,24.53
2022-08-22T12:44:28.211Z,24.50
2022-08-22T12:45:28.220Z,24.47